sensor_id;sensor_type;location;lat;lon;timestamp;temperature;humidity
23471;DHT22;11908;50.806;4.424;2023-11-19T00:00:20;13.60;99.90
23471;DHT22;11908;50.806;4.424;2023-11-19T00:02:46;13.60;99.90
23471;DHT22;11908;50.806;4.424;2023-11-19T00:05:13;13.60;99.90
23471;DHT22;11908;50.806;4.424;2023-11-19T00:07:39;13.60;99.90
23471;DHT22;11908;50.806;4.424;2023-11-19T00:10:17;13.60;99.90
23471;DHT22;11908;50.806;4.424;2023-11-19T00:12:49;13.60;99.90
23471;DHT22;11908;50.806;4.424;2023-11-19T00:15:16;13.60;99.90
23471;DHT22;11908;50.806;4.424;2023-11-19T00:17:45;13.60;99.90
23471;DHT22;11908;50.806;4.424;2023-11-19T00:20:18;13.60;99.90
23471;DHT22;11908;50.806;4.424;2023-11-19T00:22:44;13.60;99.90
23471;DHT22;11908;50.806;4.424;2023-11-19T00:25:14;13.70;99.90
23471;DHT22;11908;50.806;4.424;2023-11-19T00:27:39;13.70;99.90
23471;DHT22;11908;50.806;4.424;2023-11-19T00:30:06;13.80;99.90
23471;DHT22;11908;50.806;4.424;2023-11-19T00:32:32;13.70;99.90
23471;DHT22;11908;50.806;4.424;2023-11-19T00:34:58;13.70;99.90
23471;DHT22;11908;50.806;4.424;2023-11-19T00:37:24;13.70;99.90
23471;DHT22;11908;50.806;4.424;2023-11-19T00:39:49;13.60;99.90
23471;DHT22;11908;50.806;4.424;2023-11-19T00:42:15;13.60;99.90
23471;DHT22;11908;50.806;4.424;2023-11-19T00:44:41;13.60;99.90
23471;DHT22;11908;50.806;4.424;2023-11-19T00:47:07;13.60;99.90
23471;DHT22;11908;50.806;4.424;2023-11-19T00:49:32;13.60;99.90
23471;DHT22;11908;50.806;4.424;2023-11-19T00:51:59;13.60;99.90
23471;DHT22;11908;50.806;4.424;2023-11-19T00:54:25;13.60;99.90
23471;DHT22;11908;50.806;4.424;2023-11-19T00:56:53;13.60;99.90
23471;DHT22;11908;50.806;4.424;2023-11-19T00:59:19;13.60;99.90
23471;DHT22;11908;50.806;4.424;2023-11-19T01:01:45;13.60;99.90
23471;DHT22;11908;50.806;4.424;2023-11-19T01:04:13;13.60;99.90
23471;DHT22;11908;50.806;4.424;2023-11-19T01:06:40;13.60;99.90
23471;DHT22;11908;50.806;4.424;2023-11-19T01:09:05;13.60;99.90
23471;DHT22;11908;50.806;4.424;2023-11-19T01:11:31;13.60;99.90
23471;DHT22;11908;50.806;4.424;2023-11-19T01:13:57;13.60;99.90
23471;DHT22;11908;50.806;4.424;2023-11-19T01:16:22;13.60;99.90
23471;DHT22;11908;50.806;4.424;2023-11-19T01:18:48;13.50;99.90
23471;DHT22;11908;50.806;4.424;2023-11-19T01:21:14;13.50;99.90
23471;DHT22;11908;50.806;4.424;2023-11-19T01:23:41;13.50;99.90
23471;DHT22;11908;50.806;4.424;2023-11-19T01:26:09;13.60;99.90
23471;DHT22;11908;50.806;4.424;2023-11-19T01:28:39;13.60;99.90
23471;DHT22;11908;50.806;4.424;2023-11-19T01:31:12;13.70;99.90
23471;DHT22;11908;50.806;4.424;2023-11-19T01:33:40;13.60;99.90
23471;DHT22;11908;50.806;4.424;2023-11-19T01:36:07;13.60;99.90
23471;DHT22;11908;50.806;4.424;2023-11-19T01:38:34;13.60;99.90
23471;DHT22;11908;50.806;4.424;2023-11-19T01:41:00;13.50;99.90
23471;DHT22;11908;50.806;4.424;2023-11-19T01:43:46;13.50;99.90
23471;DHT22;11908;50.806;4.424;2023-11-19T01:46:12;13.50;99.90
23471;DHT22;11908;50.806;4.424;2023-11-19T01:48:44;13.50;99.90
23471;DHT22;11908;50.806;4.424;2023-11-19T01:51:11;13.40;99.90
23471;DHT22;11908;50.806;4.424;2023-11-19T01:53:38;13.40;99.90
23471;DHT22;11908;50.806;4.424;2023-11-19T01:56:07;13.30;99.90
23471;DHT22;11908;50.806;4.424;2023-11-19T01:58:36;13.40;99.90
23471;DHT22;11908;50.806;4.424;2023-11-19T02:01:02;13.40;99.90
23471;DHT22;11908;50.806;4.424;2023-11-19T02:03:31;13.40;99.90
23471;DHT22;11908;50.806;4.424;2023-11-19T02:05:59;13.40;99.90
23471;DHT22;11908;50.806;4.424;2023-11-19T02:08:25;13.40;99.90
23471;DHT22;11908;50.806;4.424;2023-11-19T02:10:51;13.40;99.90
23471;DHT22;11908;50.806;4.424;2023-11-19T02:13:18;13.50;99.90
23471;DHT22;11908;50.806;4.424;2023-11-19T02:15:44;13.40;99.90
23471;DHT22;11908;50.806;4.424;2023-11-19T02:18:24;13.40;99.90
23471;DHT22;11908;50.806;4.424;2023-11-19T02:20:56;13.30;99.90
23471;DHT22;11908;50.806;4.424;2023-11-19T02:23:23;13.30;99.90
23471;DHT22;11908;50.806;4.424;2023-11-19T02:28:56;13.30;99.90
23471;DHT22;11908;50.806;4.424;2023-11-19T02:31:22;13.30;99.90
23471;DHT22;11908;50.806;4.424;2023-11-19T02:33:48;13.30;99.90
23471;DHT22;11908;50.806;4.424;2023-11-19T02:36:15;13.20;99.90
23471;DHT22;11908;50.806;4.424;2023-11-19T02:38:42;13.10;99.90
23471;DHT22;11908;50.806;4.424;2023-11-19T02:41:08;13.10;99.90
23471;DHT22;11908;50.806;4.424;2023-11-19T02:43:36;13.00;99.90
23471;DHT22;11908;50.806;4.424;2023-11-19T02:46:03;13.00;99.90
23471;DHT22;11908;50.806;4.424;2023-11-19T02:48:33;13.00;99.90
23471;DHT22;11908;50.806;4.424;2023-11-19T02:51:01;13.00;99.90
23471;DHT22;11908;50.806;4.424;2023-11-19T02:53:29;13.10;99.90
23471;DHT22;11908;50.806;4.424;2023-11-19T02:55:54;13.10;99.90
23471;DHT22;11908;50.806;4.424;2023-11-19T02:58:27;13.10;99.90
23471;DHT22;11908;50.806;4.424;2023-11-19T03:00:54;13.20;99.90
23471;DHT22;11908;50.806;4.424;2023-11-19T03:03:24;13.10;99.90
23471;DHT22;11908;50.806;4.424;2023-11-19T03:05:54;13.10;99.90
23471;DHT22;11908;50.806;4.424;2023-11-19T03:08:21;13.20;99.90
23471;DHT22;11908;50.806;4.424;2023-11-19T03:10:47;13.10;99.90
23471;DHT22;11908;50.806;4.424;2023-11-19T03:13:14;13.10;99.90
23471;DHT22;11908;50.806;4.424;2023-11-19T03:15:41;13.20;99.90
23471;DHT22;11908;50.806;4.424;2023-11-19T03:18:07;13.10;99.90
23471;DHT22;11908;50.806;4.424;2023-11-19T03:20:33;13.10;99.90
23471;DHT22;11908;50.806;4.424;2023-11-19T03:22:59;13.10;99.90
23471;DHT22;11908;50.806;4.424;2023-11-19T03:25:25;13.10;99.90
23471;DHT22;11908;50.806;4.424;2023-11-19T03:28:00;13.00;99.90
23471;DHT22;11908;50.806;4.424;2023-11-19T03:30:29;12.90;99.90
23471;DHT22;11908;50.806;4.424;2023-11-19T03:32:56;12.80;99.90
23471;DHT22;11908;50.806;4.424;2023-11-19T03:35:22;12.70;99.90
23471;DHT22;11908;50.806;4.424;2023-11-19T03:37:48;12.70;99.90
23471;DHT22;11908;50.806;4.424;2023-11-19T03:40:14;12.70;99.90
23471;DHT22;11908;50.806;4.424;2023-11-19T03:42:40;12.70;99.90
23471;DHT22;11908;50.806;4.424;2023-11-19T03:45:09;12.60;99.90
23471;DHT22;11908;50.806;4.424;2023-11-19T03:47:35;12.60;99.90
23471;DHT22;11908;50.806;4.424;2023-11-19T03:50:02;12.50;99.90
23471;DHT22;11908;50.806;4.424;2023-11-19T03:52:28;12.50;99.90
23471;DHT22;11908;50.806;4.424;2023-11-19T03:54:55;12.40;99.90
23471;DHT22;11908;50.806;4.424;2023-11-19T03:57:21;12.40;99.90
23471;DHT22;11908;50.806;4.424;2023-11-19T03:59:47;12.40;99.90
23471;DHT22;11908;50.806;4.424;2023-11-19T04:02:13;12.40;99.90
23471;DHT22;11908;50.806;4.424;2023-11-19T04:04:39;12.40;99.90
23471;DHT22;11908;50.806;4.424;2023-11-19T04:07:05;12.40;99.90
23471;DHT22;11908;50.806;4.424;2023-11-19T04:09:31;12.40;99.90
23471;DHT22;11908;50.806;4.424;2023-11-19T04:11:59;12.40;99.90
23471;DHT22;11908;50.806;4.424;2023-11-19T04:14:25;12.40;99.90
23471;DHT22;11908;50.806;4.424;2023-11-19T04:16:51;12.40;99.90
23471;DHT22;11908;50.806;4.424;2023-11-19T04:19:18;12.40;99.90
23471;DHT22;11908;50.806;4.424;2023-11-19T04:21:44;12.50;99.90
23471;DHT22;11908;50.806;4.424;2023-11-19T04:24:10;12.40;99.90
23471;DHT22;11908;50.806;4.424;2023-11-19T04:26:45;12.40;99.90
23471;DHT22;11908;50.806;4.424;2023-11-19T04:29:15;12.40;99.90
23471;DHT22;11908;50.806;4.424;2023-11-19T04:31:45;12.40;99.90
23471;DHT22;11908;50.806;4.424;2023-11-19T04:34:12;12.40;99.90
23471;DHT22;11908;50.806;4.424;2023-11-19T04:36:37;12.40;99.90
23471;DHT22;11908;50.806;4.424;2023-11-19T04:39:04;12.30;99.90
23471;DHT22;11908;50.806;4.424;2023-11-19T04:41:51;12.30;99.90
23471;DHT22;11908;50.806;4.424;2023-11-19T04:44:20;12.30;99.90
23471;DHT22;11908;50.806;4.424;2023-11-19T04:46:46;12.30;99.90
23471;DHT22;11908;50.806;4.424;2023-11-19T04:49:13;12.30;99.90
23471;DHT22;11908;50.806;4.424;2023-11-19T04:51:40;12.40;99.90
23471;DHT22;11908;50.806;4.424;2023-11-19T04:54:07;12.40;99.90
23471;DHT22;11908;50.806;4.424;2023-11-19T04:56:34;12.40;99.90
23471;DHT22;11908;50.806;4.424;2023-11-19T04:59:01;12.40;99.90
23471;DHT22;11908;50.806;4.424;2023-11-19T05:01:27;12.50;99.90
23471;DHT22;11908;50.806;4.424;2023-11-19T05:03:53;12.50;99.90
23471;DHT22;11908;50.806;4.424;2023-11-19T05:06:19;12.50;99.90
23471;DHT22;11908;50.806;4.424;2023-11-19T05:08:45;12.50;99.90
23471;DHT22;11908;50.806;4.424;2023-11-19T05:11:11;12.50;99.90
23471;DHT22;11908;50.806;4.424;2023-11-19T05:13:43;12.50;99.90
23471;DHT22;11908;50.806;4.424;2023-11-19T05:16:11;12.40;99.90
23471;DHT22;11908;50.806;4.424;2023-11-19T05:18:39;12.30;99.90
23471;DHT22;11908;50.806;4.424;2023-11-19T05:21:05;12.30;99.90
23471;DHT22;11908;50.806;4.424;2023-11-19T05:23:32;12.20;99.90
23471;DHT22;11908;50.806;4.424;2023-11-19T05:26:00;12.20;99.90
23471;DHT22;11908;50.806;4.424;2023-11-19T05:28:25;12.10;99.90
23471;DHT22;11908;50.806;4.424;2023-11-19T05:30:51;12.10;99.90
23471;DHT22;11908;50.806;4.424;2023-11-19T05:33:17;12.00;99.90
23471;DHT22;11908;50.806;4.424;2023-11-19T05:35:43;12.00;99.90
23471;DHT22;11908;50.806;4.424;2023-11-19T05:38:08;12.00;99.90
23471;DHT22;11908;50.806;4.424;2023-11-19T05:40:35;12.00;99.90
23471;DHT22;11908;50.806;4.424;2023-11-19T05:43:01;12.10;99.90
23471;DHT22;11908;50.806;4.424;2023-11-19T05:45:27;12.00;99.90
23471;DHT22;11908;50.806;4.424;2023-11-19T05:47:52;12.10;99.90
23471;DHT22;11908;50.806;4.424;2023-11-19T05:50:18;12.10;99.90
23471;DHT22;11908;50.806;4.424;2023-11-19T05:52:44;12.10;99.90
23471;DHT22;11908;50.806;4.424;2023-11-19T05:55:10;12.20;99.90
23471;DHT22;11908;50.806;4.424;2023-11-19T05:57:39;12.20;99.90
23471;DHT22;11908;50.806;4.424;2023-11-19T06:00:06;12.20;99.90
23471;DHT22;11908;50.806;4.424;2023-11-19T06:02:34;12.30;99.90
23471;DHT22;11908;50.806;4.424;2023-11-19T06:05:00;12.30;99.90
23471;DHT22;11908;50.806;4.424;2023-11-19T06:07:27;12.20;99.90
23471;DHT22;11908;50.806;4.424;2023-11-19T06:09:53;12.10;99.90
23471;DHT22;11908;50.806;4.424;2023-11-19T06:12:19;12.10;99.90
23471;DHT22;11908;50.806;4.424;2023-11-19T06:14:44;12.00;99.90
23471;DHT22;11908;50.806;4.424;2023-11-19T06:17:10;12.00;99.90
23471;DHT22;11908;50.806;4.424;2023-11-19T06:19:37;11.90;99.90
23471;DHT22;11908;50.806;4.424;2023-11-19T06:22:03;11.80;99.90
23471;DHT22;11908;50.806;4.424;2023-11-19T06:24:29;11.80;99.90
23471;DHT22;11908;50.806;4.424;2023-11-19T06:26:55;11.80;99.90
23471;DHT22;11908;50.806;4.424;2023-11-19T06:29:21;11.80;99.90
23471;DHT22;11908;50.806;4.424;2023-11-19T06:31:46;11.70;99.90
23471;DHT22;11908;50.806;4.424;2023-11-19T06:34:14;11.70;99.90
23471;DHT22;11908;50.806;4.424;2023-11-19T06:36:40;11.70;99.90
23471;DHT22;11908;50.806;4.424;2023-11-19T06:39:06;11.60;99.90
23471;DHT22;11908;50.806;4.424;2023-11-19T06:41:32;11.60;99.90
23471;DHT22;11908;50.806;4.424;2023-11-19T06:43:57;11.60;99.90
23471;DHT22;11908;50.806;4.424;2023-11-19T06:46:23;11.60;99.90
23471;DHT22;11908;50.806;4.424;2023-11-19T06:48:49;11.60;99.90
23471;DHT22;11908;50.806;4.424;2023-11-19T06:51:15;11.60;99.90
23471;DHT22;11908;50.806;4.424;2023-11-19T06:53:42;11.60;99.90
23471;DHT22;11908;50.806;4.424;2023-11-19T06:56:22;11.60;99.90
23471;DHT22;11908;50.806;4.424;2023-11-19T06:58:49;11.60;99.90
23471;DHT22;11908;50.806;4.424;2023-11-19T07:01:15;11.60;99.90
23471;DHT22;11908;50.806;4.424;2023-11-19T07:03:42;11.60;99.90
23471;DHT22;11908;50.806;4.424;2023-11-19T07:06:07;11.60;99.90
23471;DHT22;11908;50.806;4.424;2023-11-19T07:08:34;11.60;99.90
23471;DHT22;11908;50.806;4.424;2023-11-19T07:11:00;11.70;99.90
23471;DHT22;11908;50.806;4.424;2023-11-19T07:13:25;11.60;99.90
23471;DHT22;11908;50.806;4.424;2023-11-19T07:15:55;11.70;99.90
23471;DHT22;11908;50.806;4.424;2023-11-19T07:18:21;11.60;99.90
23471;DHT22;11908;50.806;4.424;2023-11-19T07:20:48;11.60;99.90
23471;DHT22;11908;50.806;4.424;2023-11-19T07:23:14;11.70;99.90
23471;DHT22;11908;50.806;4.424;2023-11-19T07:25:43;11.70;99.90
23471;DHT22;11908;50.806;4.424;2023-11-19T07:28:12;11.70;99.90
23471;DHT22;11908;50.806;4.424;2023-11-19T07:30:38;11.70;99.90
23471;DHT22;11908;50.806;4.424;2023-11-19T07:33:04;11.80;99.90
23471;DHT22;11908;50.806;4.424;2023-11-19T07:35:31;11.80;99.90
23471;DHT22;11908;50.806;4.424;2023-11-19T07:37:57;11.80;99.90
23471;DHT22;11908;50.806;4.424;2023-11-19T07:40:26;11.80;99.90
23471;DHT22;11908;50.806;4.424;2023-11-19T07:42:51;11.80;99.90
23471;DHT22;11908;50.806;4.424;2023-11-19T07:45:17;11.80;99.90
23471;DHT22;11908;50.806;4.424;2023-11-19T07:47:43;11.80;99.90
23471;DHT22;11908;50.806;4.424;2023-11-19T07:50:10;11.90;99.90
23471;DHT22;11908;50.806;4.424;2023-11-19T07:52:37;11.90;99.90
23471;DHT22;11908;50.806;4.424;2023-11-19T07:55:02;11.90;99.90
23471;DHT22;11908;50.806;4.424;2023-11-19T07:57:28;11.90;99.90
23471;DHT22;11908;50.806;4.424;2023-11-19T07:59:57;11.90;99.90
23471;DHT22;11908;50.806;4.424;2023-11-19T08:02:22;12.00;99.90
23471;DHT22;11908;50.806;4.424;2023-11-19T08:04:49;12.10;99.90
23471;DHT22;11908;50.806;4.424;2023-11-19T08:07:20;12.20;99.90
23471;DHT22;11908;50.806;4.424;2023-11-19T08:09:47;12.30;99.90
23471;DHT22;11908;50.806;4.424;2023-11-19T08:12:13;12.30;99.90
23471;DHT22;11908;50.806;4.424;2023-11-19T08:14:43;12.40;99.90
23471;DHT22;11908;50.806;4.424;2023-11-19T08:17:09;12.40;99.90
23471;DHT22;11908;50.806;4.424;2023-11-19T08:19:35;12.40;99.90
23471;DHT22;11908;50.806;4.424;2023-11-19T08:22:00;12.40;99.90
23471;DHT22;11908;50.806;4.424;2023-11-19T08:24:26;12.50;99.90
23471;DHT22;11908;50.806;4.424;2023-11-19T08:26:52;12.50;99.90
23471;DHT22;11908;50.806;4.424;2023-11-19T08:29:17;12.60;99.90
23471;DHT22;11908;50.806;4.424;2023-11-19T08:31:43;12.70;99.90
23471;DHT22;11908;50.806;4.424;2023-11-19T08:34:09;12.70;99.90
23471;DHT22;11908;50.806;4.424;2023-11-19T08:36:34;12.90;99.90
23471;DHT22;11908;50.806;4.424;2023-11-19T08:39:00;13.10;99.90
23471;DHT22;11908;50.806;4.424;2023-11-19T08:41:26;13.20;99.90
23471;DHT22;11908;50.806;4.424;2023-11-19T08:43:52;13.10;99.90
23471;DHT22;11908;50.806;4.424;2023-11-19T08:46:18;12.90;99.90
23471;DHT22;11908;50.806;4.424;2023-11-19T08:48:44;12.80;99.90
23471;DHT22;11908;50.806;4.424;2023-11-19T08:51:11;12.70;99.90
23471;DHT22;11908;50.806;4.424;2023-11-19T08:53:37;12.60;99.90
23471;DHT22;11908;50.806;4.424;2023-11-19T08:56:03;12.60;99.90
23471;DHT22;11908;50.806;4.424;2023-11-19T08:58:29;12.60;99.90
23471;DHT22;11908;50.806;4.424;2023-11-19T09:00:56;12.80;99.90
23471;DHT22;11908;50.806;4.424;2023-11-19T09:03:21;13.10;99.90
23471;DHT22;11908;50.806;4.424;2023-11-19T09:05:47;13.20;99.90
23471;DHT22;11908;50.806;4.424;2023-11-19T09:08:13;13.30;99.90
23471;DHT22;11908;50.806;4.424;2023-11-19T09:10:38;13.40;99.90
23471;DHT22;11908;50.806;4.424;2023-11-19T09:13:04;13.50;99.90
23471;DHT22;11908;50.806;4.424;2023-11-19T09:15:30;13.70;99.90
23471;DHT22;11908;50.806;4.424;2023-11-19T09:17:55;14.10;99.90
23471;DHT22;11908;50.806;4.424;2023-11-19T09:20:21;14.20;99.90
23471;DHT22;11908;50.806;4.424;2023-11-19T09:22:47;14.00;99.90
23471;DHT22;11908;50.806;4.424;2023-11-19T09:25:13;13.70;99.90
23471;DHT22;11908;50.806;4.424;2023-11-19T09:27:42;13.80;99.90
23471;DHT22;11908;50.806;4.424;2023-11-19T09:30:09;14.00;99.90
23471;DHT22;11908;50.806;4.424;2023-11-19T09:32:35;14.10;99.90
23471;DHT22;11908;50.806;4.424;2023-11-19T09:35:00;14.20;99.90
23471;DHT22;11908;50.806;4.424;2023-11-19T09:37:28;14.50;99.90
23471;DHT22;11908;50.806;4.424;2023-11-19T09:39:53;14.60;99.90
23471;DHT22;11908;50.806;4.424;2023-11-19T09:42:19;14.70;99.90
23471;DHT22;11908;50.806;4.424;2023-11-19T09:44:45;14.60;99.90
23471;DHT22;11908;50.806;4.424;2023-11-19T09:47:11;14.50;99.90
23471;DHT22;11908;50.806;4.424;2023-11-19T09:49:38;14.50;99.90
23471;DHT22;11908;50.806;4.424;2023-11-19T09:52:04;14.30;99.90
23471;DHT22;11908;50.806;4.424;2023-11-19T09:54:30;14.40;99.90
23471;DHT22;11908;50.806;4.424;2023-11-19T09:56:57;14.80;99.90
23471;DHT22;11908;50.806;4.424;2023-11-19T09:59:29;14.70;99.90
23471;DHT22;11908;50.806;4.424;2023-11-19T10:01:56;14.70;99.90
23471;DHT22;11908;50.806;4.424;2023-11-19T10:04:22;14.60;99.90
23471;DHT22;11908;50.806;4.424;2023-11-19T10:06:50;14.60;99.90
23471;DHT22;11908;50.806;4.424;2023-11-19T10:09:15;14.70;99.90
23471;DHT22;11908;50.806;4.424;2023-11-19T10:11:41;14.80;99.90
23471;DHT22;11908;50.806;4.424;2023-11-19T10:14:07;14.80;99.90
23471;DHT22;11908;50.806;4.424;2023-11-19T10:16:34;14.80;99.90
23471;DHT22;11908;50.806;4.424;2023-11-19T10:19:00;14.90;99.90
23471;DHT22;11908;50.806;4.424;2023-11-19T10:21:26;15.00;99.90
23471;DHT22;11908;50.806;4.424;2023-11-19T10:23:56;15.20;99.90
23471;DHT22;11908;50.806;4.424;2023-11-19T10:26:24;15.50;99.90
23471;DHT22;11908;50.806;4.424;2023-11-19T10:28:50;15.30;99.90
23471;DHT22;11908;50.806;4.424;2023-11-19T10:31:16;15.40;99.90
23471;DHT22;11908;50.806;4.424;2023-11-19T10:33:43;15.50;99.90
23471;DHT22;11908;50.806;4.424;2023-11-19T10:36:12;15.20;99.90
23471;DHT22;11908;50.806;4.424;2023-11-19T10:38:39;15.50;99.90
23471;DHT22;11908;50.806;4.424;2023-11-19T10:41:06;15.80;99.90
23471;DHT22;11908;50.806;4.424;2023-11-19T10:43:42;16.20;99.90
23471;DHT22;11908;50.806;4.424;2023-11-19T10:46:11;16.60;99.90
23471;DHT22;11908;50.806;4.424;2023-11-19T10:48:39;16.40;99.90
23471;DHT22;11908;50.806;4.424;2023-11-19T10:51:06;16.00;99.90
23471;DHT22;11908;50.806;4.424;2023-11-19T10:53:37;15.60;99.90
23471;DHT22;11908;50.806;4.424;2023-11-19T10:56:11;15.30;99.90
23471;DHT22;11908;50.806;4.424;2023-11-19T10:58:44;15.20;99.90
23471;DHT22;11908;50.806;4.424;2023-11-19T11:01:18;15.20;99.90
23471;DHT22;11908;50.806;4.424;2023-11-19T11:03:44;15.30;99.90
23471;DHT22;11908;50.806;4.424;2023-11-19T11:06:13;15.10;99.90
23471;DHT22;11908;50.806;4.424;2023-11-19T11:08:39;15.10;99.90
23471;DHT22;11908;50.806;4.424;2023-11-19T11:11:06;15.20;99.90
23471;DHT22;11908;50.806;4.424;2023-11-19T11:13:33;15.40;99.90
23471;DHT22;11908;50.806;4.424;2023-11-19T11:16:00;15.10;99.90
23471;DHT22;11908;50.806;4.424;2023-11-19T11:18:26;14.90;99.90
23471;DHT22;11908;50.806;4.424;2023-11-19T11:21:14;14.50;99.90
23471;DHT22;11908;50.806;4.424;2023-11-19T11:28:54;14.00;99.90
23471;DHT22;11908;50.806;4.424;2023-11-19T11:34:11;14.20;99.90
23471;DHT22;11908;50.806;4.424;2023-11-19T11:36:56;14.50;99.90
23471;DHT22;11908;50.806;4.424;2023-11-19T11:39:24;14.90;99.90
23471;DHT22;11908;50.806;4.424;2023-11-19T11:45:05;15.20;99.90
23471;DHT22;11908;50.806;4.424;2023-11-19T11:50:15;15.30;99.90
23471;DHT22;11908;50.806;4.424;2023-11-19T11:55:52;15.50;99.90
23471;DHT22;11908;50.806;4.424;2023-11-19T11:58:21;15.60;99.90
23471;DHT22;11908;50.806;4.424;2023-11-19T12:00:48;15.80;99.90
23471;DHT22;11908;50.806;4.424;2023-11-19T12:03:14;15.60;99.90
23471;DHT22;11908;50.806;4.424;2023-11-19T12:05:42;15.80;99.90
23471;DHT22;11908;50.806;4.424;2023-11-19T12:08:11;16.00;99.90
23471;DHT22;11908;50.806;4.424;2023-11-19T12:10:58;15.60;99.90
23471;DHT22;11908;50.806;4.424;2023-11-19T12:13:24;15.20;99.90
23471;DHT22;11908;50.806;4.424;2023-11-19T12:18:23;14.90;99.90
23471;DHT22;11908;50.806;4.424;2023-11-19T12:20:50;14.50;99.90
23471;DHT22;11908;50.806;4.424;2023-11-19T12:23:15;14.40;99.90
23471;DHT22;11908;50.806;4.424;2023-11-19T12:25:41;14.20;99.90
23471;DHT22;11908;50.806;4.424;2023-11-19T12:28:12;14.00;99.90
23471;DHT22;11908;50.806;4.424;2023-11-19T12:30:38;14.10;99.90
23471;DHT22;11908;50.806;4.424;2023-11-19T12:33:12;14.10;99.90
23471;DHT22;11908;50.806;4.424;2023-11-19T12:35:42;13.90;99.90
23471;DHT22;11908;50.806;4.424;2023-11-19T12:38:08;13.70;99.90
23471;DHT22;11908;50.806;4.424;2023-11-19T12:40:43;13.70;99.90
23471;DHT22;11908;50.806;4.424;2023-11-19T12:43:09;13.70;99.90
23471;DHT22;11908;50.806;4.424;2023-11-19T12:45:35;13.70;99.90
23471;DHT22;11908;50.806;4.424;2023-11-19T12:48:08;13.60;99.90
23471;DHT22;11908;50.806;4.424;2023-11-19T12:50:56;13.70;99.90
23471;DHT22;11908;50.806;4.424;2023-11-19T12:53:27;13.70;99.90
23471;DHT22;11908;50.806;4.424;2023-11-19T12:55:54;13.70;99.90
23471;DHT22;11908;50.806;4.424;2023-11-19T12:58:34;13.70;99.90
23471;DHT22;11908;50.806;4.424;2023-11-19T13:01:01;13.70;99.90
23471;DHT22;11908;50.806;4.424;2023-11-19T13:03:31;13.70;99.90
23471;DHT22;11908;50.806;4.424;2023-11-19T13:06:10;13.80;99.90
23471;DHT22;11908;50.806;4.424;2023-11-19T13:08:47;13.80;99.90
23471;DHT22;11908;50.806;4.424;2023-11-19T13:11:35;13.90;99.90
23471;DHT22;11908;50.806;4.424;2023-11-19T13:16:29;13.80;99.90
23471;DHT22;11908;50.806;4.424;2023-11-19T13:18:55;13.70;99.90
23471;DHT22;11908;50.806;4.424;2023-11-19T13:21:21;13.70;99.90
23471;DHT22;11908;50.806;4.424;2023-11-19T13:23:46;13.60;99.90
23471;DHT22;11908;50.806;4.424;2023-11-19T13:26:12;13.60;99.90
23471;DHT22;11908;50.806;4.424;2023-11-19T13:28:38;13.50;99.90
23471;DHT22;11908;50.806;4.424;2023-11-19T13:31:04;13.50;99.90
23471;DHT22;11908;50.806;4.424;2023-11-19T13:33:30;13.50;99.90
23471;DHT22;11908;50.806;4.424;2023-11-19T13:35:56;13.50;99.90
23471;DHT22;11908;50.806;4.424;2023-11-19T13:38:22;13.40;99.90
23471;DHT22;11908;50.806;4.424;2023-11-19T13:40:51;13.40;99.90
23471;DHT22;11908;50.806;4.424;2023-11-19T13:43:17;13.60;99.90
23471;DHT22;11908;50.806;4.424;2023-11-19T13:45:42;13.70;99.90
23471;DHT22;11908;50.806;4.424;2023-11-19T13:48:08;13.60;99.90
23471;DHT22;11908;50.806;4.424;2023-11-19T13:50:34;13.70;99.90
23471;DHT22;11908;50.806;4.424;2023-11-19T13:53:00;13.70;99.90
23471;DHT22;11908;50.806;4.424;2023-11-19T13:55:26;13.70;99.90
23471;DHT22;11908;50.806;4.424;2023-11-19T13:57:52;13.80;99.90
23471;DHT22;11908;50.806;4.424;2023-11-19T14:00:18;13.80;99.90
23471;DHT22;11908;50.806;4.424;2023-11-19T14:02:46;13.60;99.90
23471;DHT22;11908;50.806;4.424;2023-11-19T14:05:13;13.60;99.90
23471;DHT22;11908;50.806;4.424;2023-11-19T14:07:39;13.50;99.90
23471;DHT22;11908;50.806;4.424;2023-11-19T14:10:06;13.50;99.90
23471;DHT22;11908;50.806;4.424;2023-11-19T14:12:32;13.50;99.90
23471;DHT22;11908;50.806;4.424;2023-11-19T14:14:59;13.50;99.90
23471;DHT22;11908;50.806;4.424;2023-11-19T14:17:25;13.40;99.90
23471;DHT22;11908;50.806;4.424;2023-11-19T14:19:51;13.40;99.90
23471;DHT22;11908;50.806;4.424;2023-11-19T14:22:17;13.40;99.90
23471;DHT22;11908;50.806;4.424;2023-11-19T14:24:43;13.40;99.90
23471;DHT22;11908;50.806;4.424;2023-11-19T14:27:11;13.40;99.90
23471;DHT22;11908;50.806;4.424;2023-11-19T14:29:37;13.20;99.90
23471;DHT22;11908;50.806;4.424;2023-11-19T14:32:03;13.30;99.90
23471;DHT22;11908;50.806;4.424;2023-11-19T14:34:30;13.10;99.90
23471;DHT22;11908;50.806;4.424;2023-11-19T14:36:56;13.00;99.90
23471;DHT22;11908;50.806;4.424;2023-11-19T14:39:22;13.00;99.90
23471;DHT22;11908;50.806;4.424;2023-11-19T14:41:48;12.90;99.90
23471;DHT22;11908;50.806;4.424;2023-11-19T14:44:15;13.00;99.90
23471;DHT22;11908;50.806;4.424;2023-11-19T14:46:41;13.00;99.90
23471;DHT22;11908;50.806;4.424;2023-11-19T14:49:06;13.00;99.90
23471;DHT22;11908;50.806;4.424;2023-11-19T14:51:38;12.90;99.90
23471;DHT22;11908;50.806;4.424;2023-11-19T14:54:22;13.00;99.90
23471;DHT22;11908;50.806;4.424;2023-11-19T14:56:52;13.00;99.90
23471;DHT22;11908;50.806;4.424;2023-11-19T14:59:37;13.00;99.90
23471;DHT22;11908;50.806;4.424;2023-11-19T15:02:09;12.90;99.90
23471;DHT22;11908;50.806;4.424;2023-11-19T15:04:34;12.80;99.90
23471;DHT22;11908;50.806;4.424;2023-11-19T15:07:00;12.80;99.90
23471;DHT22;11908;50.806;4.424;2023-11-19T15:09:26;12.70;99.90
23471;DHT22;11908;50.806;4.424;2023-11-19T15:11:55;12.80;99.90
23471;DHT22;11908;50.806;4.424;2023-11-19T15:14:21;12.70;99.90
23471;DHT22;11908;50.806;4.424;2023-11-19T15:16:47;12.70;99.90
23471;DHT22;11908;50.806;4.424;2023-11-19T15:19:13;12.80;99.90
23471;DHT22;11908;50.806;4.424;2023-11-19T15:21:48;12.90;99.90
23471;DHT22;11908;50.806;4.424;2023-11-19T15:24:13;12.90;99.90
23471;DHT22;11908;50.806;4.424;2023-11-19T15:26:39;12.90;99.90
23471;DHT22;11908;50.806;4.424;2023-11-19T15:29:05;12.90;99.90
23471;DHT22;11908;50.806;4.424;2023-11-19T15:31:31;12.90;99.90
23471;DHT22;11908;50.806;4.424;2023-11-19T15:33:57;12.90;99.90
23471;DHT22;11908;50.806;4.424;2023-11-19T15:36:23;13.00;99.90
23471;DHT22;11908;50.806;4.424;2023-11-19T15:38:49;13.00;99.90
23471;DHT22;11908;50.806;4.424;2023-11-19T15:41:15;13.00;99.90
23471;DHT22;11908;50.806;4.424;2023-11-19T15:43:42;13.00;99.90
23471;DHT22;11908;50.806;4.424;2023-11-19T15:46:08;13.00;99.90
23471;DHT22;11908;50.806;4.424;2023-11-19T15:48:34;12.90;99.90
23471;DHT22;11908;50.806;4.424;2023-11-19T15:51:00;12.90;99.90
23471;DHT22;11908;50.806;4.424;2023-11-19T15:53:26;13.00;99.90
23471;DHT22;11908;50.806;4.424;2023-11-19T15:55:52;13.00;99.90